createdAt,value
2023-08-20T00:01:45.316Z,5.60
2023-08-20T00:04:11.519Z,5.22
2023-08-20T00:06:37.496Z,5.43
2023-08-20T00:09:03.205Z,5.00
2023-08-20T00:11:28.917Z,5.72
2023-08-20T00:13:54.605Z,5.50
2023-08-20T00:16:20.480Z,4.63
2023-08-20T00:18:46.386Z,5.28
2023-08-20T00:21:15.559Z,4.90
2023-08-20T00:23:41.456Z,4.72
2023-08-20T00:26:07.316Z,5.60
2023-08-20T00:28:33.102Z,5.00
2023-08-20T00:30:58.794Z,5.57
2023-08-20T00:33:24.514Z,4.47
2023-08-20T00:35:50.157Z,5.20
2023-08-20T00:38:15.848Z,5.22
2023-08-20T00:40:41.503Z,4.43
2023-08-20T00:43:07.239Z,4.95
2023-08-20T00:45:34.055Z,5.28
2023-08-20T00:47:59.873Z,5.43
2023-08-20T00:50:25.715Z,5.25
2023-08-20T00:52:51.405Z,4.63
2023-08-20T00:55:17.368Z,4.97
2023-08-20T00:57:43.065Z,5.22
2023-08-20T01:00:09.856Z,6.05
2023-08-20T01:02:35.821Z,5.65
2023-08-20T01:05:03.027Z,5.93
2023-08-20T01:07:44.030Z,5.13
2023-08-20T01:10:28.701Z,6.50
2023-08-20T01:12:55.057Z,5.45
2023-08-20T01:15:20.699Z,4.80
2023-08-20T01:17:46.504Z,4.90
2023-08-20T01:20:13.818Z,4.60
2023-08-20T01:22:52.761Z,5.70
2023-08-20T01:25:32.585Z,4.93
2023-08-20T01:28:19.426Z,5.60
2023-08-20T01:30:45.565Z,5.10
2023-08-20T01:33:12.031Z,4.30
2023-08-20T01:35:37.742Z,5.18
2023-08-20T01:38:03.514Z,5.00
2023-08-20T01:40:29.732Z,4.30
2023-08-20T01:42:55.355Z,4.50
2023-08-20T01:45:21.046Z,4.65
2023-08-20T01:47:46.882Z,4.72
2023-08-20T01:50:12.581Z,5.05
2023-08-20T01:52:38.233Z,4.25
2023-08-20T01:55:04.877Z,5.53
2023-08-20T01:57:30.547Z,4.60
2023-08-20T01:59:56.328Z,4.88
2023-08-20T02:02:22.046Z,4.70
2023-08-20T02:04:47.861Z,5.05
2023-08-20T02:07:13.506Z,5.55
2023-08-20T02:09:39.239Z,5.32
2023-08-20T02:12:05.190Z,5.95
2023-08-20T02:14:30.832Z,4.82
2023-08-20T02:16:56.535Z,4.90
2023-08-20T02:19:22.293Z,4.60
2023-08-20T02:21:47.977Z,5.30
2023-08-20T02:24:13.618Z,5.05
2023-08-20T02:26:39.326Z,5.10
2023-08-20T02:29:05.033Z,5.25
2023-08-20T02:31:31.310Z,4.70
2023-08-20T02:33:57.631Z,4.95
2023-08-20T02:36:23.359Z,5.18
2023-08-20T02:38:50.188Z,5.93
2023-08-20T02:41:15.902Z,5.05
2023-08-20T02:43:41.554Z,5.03
2023-08-20T02:46:07.295Z,4.93
2023-08-20T02:48:33.040Z,5.20
2023-08-20T02:50:58.692Z,5.55
2023-08-20T02:53:24.396Z,5.35
2023-08-20T02:55:50.022Z,5.25
2023-08-20T02:58:15.885Z,4.82
2023-08-20T03:00:42.192Z,5.30
2023-08-20T03:03:07.968Z,5.35
2023-08-20T03:05:33.798Z,5.28
2023-08-20T03:07:59.432Z,5.00
2023-08-20T03:10:26.358Z,5.63
2023-08-20T03:12:52.004Z,5.00
2023-08-20T03:15:17.694Z,5.35
2023-08-20T03:17:43.433Z,4.80
2023-08-20T03:20:09.905Z,5.88
2023-08-20T03:22:37.125Z,4.88
2023-08-20T03:25:03.136Z,5.25
2023-08-20T03:27:28.857Z,5.82
2023-08-20T03:29:54.975Z,5.25
2023-08-20T03:32:20.686Z,6.03
2023-08-20T03:34:46.533Z,5.88
2023-08-20T03:37:12.321Z,5.22
2023-08-20T03:39:38.020Z,4.90
2023-08-20T03:42:03.810Z,6.00
2023-08-20T03:44:29.668Z,5.30
2023-08-20T03:46:55.297Z,5.00
2023-08-20T03:49:21.066Z,5.72
2023-08-20T03:51:46.802Z,5.13
2023-08-20T03:54:12.469Z,4.97
2023-08-20T03:56:38.187Z,5.97
2023-08-20T03:59:04.354Z,4.97
2023-08-20T04:01:30.119Z,6.40
2023-08-20T04:03:56.207Z,5.20
2023-08-20T04:06:21.903Z,5.07
2023-08-20T04:08:47.793Z,4.75
2023-08-20T04:11:13.516Z,5.65
2023-08-20T04:13:39.220Z,5.53
2023-08-20T04:16:04.882Z,5.20
2023-08-20T04:18:30.679Z,5.55
2023-08-20T04:20:56.431Z,5.18
2023-08-20T04:23:22.060Z,4.65
2023-08-20T04:25:47.684Z,4.82
2023-08-20T04:28:13.603Z,4.68
2023-08-20T04:30:39.294Z,4.53
2023-08-20T04:33:05.477Z,4.88
2023-08-20T04:35:31.503Z,4.35
2023-08-20T04:37:57.373Z,5.07
2023-08-20T04:40:22.999Z,5.00
2023-08-20T04:42:49.141Z,5.32
2023-08-20T04:45:14.822Z,5.18
2023-08-20T04:47:40.529Z,5.20
2023-08-20T04:50:06.421Z,5.40
2023-08-20T04:52:32.109Z,4.90
2023-08-20T04:54:57.805Z,5.40
2023-08-20T04:57:23.508Z,5.63
2023-08-20T04:59:49.302Z,5.10
2023-08-20T05:02:15.009Z,5.40
2023-08-20T05:04:40.947Z,4.70
2023-08-20T05:07:06.689Z,5.47
2023-08-20T05:09:33.632Z,4.65
2023-08-20T05:11:59.241Z,5.25
2023-08-20T05:14:25.346Z,4.88
2023-08-20T05:16:51.075Z,5.25
2023-08-20T05:19:16.737Z,5.20
2023-08-20T05:21:42.541Z,4.82
2023-08-20T05:24:09.125Z,5.40
2023-08-20T05:26:35.233Z,5.70
2023-08-20T05:29:01.157Z,5.47
2023-08-20T05:31:27.115Z,5.90
2023-08-20T05:33:52.805Z,6.15
2023-08-20T05:36:18.547Z,5.40
2023-08-20T05:38:44.266Z,5.70
2023-08-20T05:41:10.002Z,5.45
2023-08-20T05:43:35.652Z,6.47
2023-08-20T05:46:01.327Z,5.35
2023-08-20T05:48:27.060Z,6.40
2023-08-20T05:50:52.992Z,5.70
2023-08-20T05:53:18.782Z,5.88
2023-08-20T05:55:44.428Z,6.10
2023-08-20T05:58:10.125Z,4.93
2023-08-20T06:00:35.813Z,5.88
2023-08-20T06:03:01.582Z,5.53
2023-08-20T06:05:27.511Z,5.93
2023-08-20T06:07:53.586Z,6.13
2023-08-20T06:10:19.247Z,6.00
2023-08-20T06:12:44.985Z,5.60
2023-08-20T06:15:10.628Z,5.97
2023-08-20T06:17:36.417Z,6.50
2023-08-20T06:20:02.554Z,5.82
2023-08-20T06:22:28.240Z,6.28
2023-08-20T06:24:54.042Z,6.28
2023-08-20T06:27:19.756Z,5.47
2023-08-20T06:29:45.602Z,5.93
2023-08-20T06:32:11.511Z,5.75
2023-08-20T06:34:37.245Z,6.85
2023-08-20T06:37:02.968Z,7.40
2023-08-20T06:39:28.662Z,7.75
2023-08-20T06:41:54.273Z,9.82
2023-08-20T06:44:19.981Z,7.60
2023-08-20T06:46:45.603Z,7.65
2023-08-20T06:49:11.349Z,7.55
2023-08-20T06:51:37.073Z,8.45
2023-08-20T06:54:04.371Z,8.23
2023-08-20T06:56:30.156Z,8.63
2023-08-20T06:58:55.765Z,9.77
2023-08-20T07:01:21.515Z,9.02
2023-08-20T07:03:47.245Z,8.80
2023-08-20T07:06:13.030Z,8.75
2023-08-20T07:08:38.903Z,9.00
2023-08-20T07:11:04.989Z,8.65
2023-08-20T07:13:30.718Z,7.80
2023-08-20T07:15:56.454Z,8.98
2023-08-20T07:18:22.250Z,8.93
2023-08-20T07:20:48.081Z,9.32
2023-08-20T07:23:14.151Z,8.23
2023-08-20T07:25:41.457Z,8.15
2023-08-20T07:28:08.433Z,9.00
2023-08-20T07:30:35.004Z,7.22
2023-08-20T07:33:05.678Z,8.25
2023-08-20T07:35:31.825Z,8.52
2023-08-20T07:37:58.132Z,8.00
2023-08-20T07:40:23.860Z,7.18
2023-08-20T07:42:49.659Z,7.72
2023-08-20T07:45:15.333Z,7.50
2023-08-20T07:47:41.009Z,8.13
2023-08-20T07:50:07.016Z,8.80
2023-08-20T07:52:33.392Z,7.78
2023-08-20T07:54:59.361Z,7.70
2023-08-20T07:57:25.106Z,7.90
2023-08-20T07:59:52.076Z,7.90
2023-08-20T08:02:18.027Z,7.88
2023-08-20T08:04:45.377Z,6.47
2023-08-20T08:07:12.170Z,6.72
2023-08-20T08:09:38.060Z,6.28
2023-08-20T08:12:04.645Z,6.05
2023-08-20T08:14:30.293Z,6.75
2023-08-20T08:16:56.658Z,6.57
2023-08-20T08:19:22.423Z,6.75
2023-08-20T08:21:48.662Z,5.63
2023-08-20T08:24:15.490Z,6.53
2023-08-20T08:26:41.581Z,6.30
2023-08-20T08:29:08.551Z,6.20
2023-08-20T08:31:34.420Z,5.50
2023-08-20T08:34:01.591Z,5.70
2023-08-20T08:36:27.255Z,6.40
2023-08-20T08:38:53.463Z,5.53
2023-08-20T08:41:22.561Z,6.35
2023-08-20T08:43:49.382Z,6.38
2023-08-20T08:46:15.791Z,5.93
2023-08-20T08:48:43.044Z,6.15
2023-08-20T08:51:09.259Z,6.57
2023-08-20T08:53:35.864Z,5.90
2023-08-20T08:56:02.600Z,6.93
2023-08-20T08:58:28.636Z,6.35
2023-08-20T09:00:54.677Z,6.20
2023-08-20T09:03:20.964Z,5.82
2023-08-20T09:05:54.170Z,6.25
2023-08-20T09:08:27.142Z,5.95
2023-08-20T09:10:54.163Z,6.32
2023-08-20T09:13:23.692Z,7.07
2023-08-20T09:15:51.853Z,7.32
2023-08-20T09:18:17.604Z,6.05
2023-08-20T09:20:43.243Z,6.13
2023-08-20T09:23:12.465Z,6.13
2023-08-20T09:25:38.116Z,6.05
2023-08-20T09:28:04.004Z,6.78
2023-08-20T09:30:29.719Z,6.28
2023-08-20T09:33:08.226Z,5.78
2023-08-20T09:35:34.016Z,5.63
2023-08-20T09:38:00.987Z,6.80
2023-08-20T09:40:27.892Z,6.03
2023-08-20T09:42:55.202Z,6.38
2023-08-20T09:45:21.794Z,6.38
2023-08-20T09:47:55.409Z,6.88
2023-08-20T09:50:22.428Z,6.57
2023-08-20T09:52:58.491Z,7.30
2023-08-20T09:55:33.425Z,6.20
2023-08-20T09:57:59.689Z,7.13
2023-08-20T10:00:25.664Z,6.97
2023-08-20T10:02:52.686Z,6.55
2023-08-20T10:05:19.049Z,7.10
2023-08-20T10:07:45.662Z,7.55
2023-08-20T10:10:11.443Z,7.15
2023-08-20T10:12:37.974Z,7.05
2023-08-20T10:15:04.554Z,7.20
2023-08-20T10:17:32.807Z,8.00
2023-08-20T10:19:59.576Z,7.45
2023-08-20T10:22:39.007Z,6.70
2023-08-20T10:25:09.074Z,7.57
2023-08-20T10:27:37.235Z,7.22
2023-08-20T10:30:09.381Z,7.07
2023-08-20T10:32:57.759Z,6.47
2023-08-20T10:35:26.508Z,7.53
2023-08-20T10:38:06.546Z,7.28
2023-08-20T10:40:54.570Z,6.43
2023-08-20T10:43:25.987Z,7.40
2023-08-20T10:46:18.016Z,6.47
2023-08-20T10:48:53.736Z,7.32
2023-08-20T10:51:29.168Z,6.72
2023-08-20T10:54:00.851Z,7.18
2023-08-20T10:56:45.537Z,6.78
2023-08-20T10:59:22.905Z,6.60
2023-08-20T11:01:50.031Z,6.63
2023-08-20T11:04:16.792Z,6.50
2023-08-20T11:06:43.456Z,6.72
2023-08-20T11:09:09.189Z,6.93
2023-08-20T11:11:34.850Z,6.95
2023-08-20T11:14:06.712Z,7.43
2023-08-20T11:16:32.433Z,7.20
2023-08-20T11:18:58.130Z,7.95
2023-08-20T11:21:24.097Z,6.80
2023-08-20T11:23:51.055Z,7.90
2023-08-20T11:26:18.323Z,7.95
2023-08-20T11:28:47.416Z,7.45
2023-08-20T11:31:13.372Z,6.93
2023-08-20T11:33:39.028Z,6.65
2023-08-20T11:36:08.386Z,7.82
2023-08-20T11:38:34.318Z,7.22
2023-08-20T11:41:00.228Z,7.07
2023-08-20T11:43:29.764Z,7.57
2023-08-20T11:45:56.042Z,8.40
2023-08-20T11:48:23.337Z,7.05
2023-08-20T11:50:50.649Z,6.97
2023-08-20T11:53:23.961Z,6.40
2023-08-20T11:55:49.714Z,7.05
2023-08-20T11:58:15.535Z,6.75
2023-08-20T12:00:41.497Z,7.55
2023-08-20T12:03:09.379Z,6.47
2023-08-20T12:05:35.149Z,6.88
2023-08-20T12:08:02.206Z,6.75
2023-08-20T12:10:29.904Z,7.53
2023-08-20T12:12:57.295Z,7.60
2023-08-20T12:15:24.064Z,7.50
2023-08-20T12:18:16.870Z,7.13
2023-08-20T12:20:42.484Z,6.75
2023-08-20T12:23:08.177Z,7.03
2023-08-20T12:25:35.230Z,7.32
2023-08-20T12:28:02.268Z,6.43
2023-08-20T12:30:27.931Z,6.70
2023-08-20T12:32:53.783Z,7.47
2023-08-20T12:35:19.577Z,7.15
2023-08-20T12:37:45.204Z,7.85
2023-08-20T12:40:11.641Z,7.35
2023-08-20T12:42:38.032Z,6.90
2023-08-20T12:45:07.619Z,7.13
2023-08-20T12:47:34.678Z,6.78
2023-08-20T12:50:00.970Z,6.72
2023-08-20T12:52:27.042Z,6.63
2023-08-20T12:54:52.953Z,6.32
2023-08-20T12:57:18.628Z,6.80
2023-08-20T12:59:44.504Z,6.70
2023-08-20T13:02:10.898Z,6.10
2023-08-20T13:04:37.018Z,6.72
2023-08-20T13:07:04.093Z,6.60
2023-08-20T13:09:29.941Z,6.35
2023-08-20T13:11:57.759Z,6.65
2023-08-20T13:14:23.970Z,6.65
2023-08-20T13:16:49.976Z,6.43
2023-08-20T13:19:15.901Z,6.40
2023-08-20T13:21:41.769Z,5.95
2023-08-20T13:24:07.677Z,6.35
2023-08-20T13:26:33.371Z,6.32
2023-08-20T13:28:59.007Z,6.70
2023-08-20T13:31:24.780Z,6.47
2023-08-20T13:33:50.564Z,5.68
2023-08-20T13:36:16.284Z,6.00
2023-08-20T13:38:42.133Z,6.43
2023-08-20T13:41:08.189Z,5.95
2023-08-20T13:43:33.975Z,5.85
2023-08-20T13:45:59.798Z,5.45
2023-08-20T13:48:25.544Z,6.75
2023-08-20T13:50:51.298Z,6.93
2023-08-20T13:53:16.945Z,6.07
2023-08-20T13:55:42.874Z,6.38
2023-08-20T13:58:10.477Z,6.63
2023-08-20T14:00:36.388Z,6.40
2023-08-20T14:03:02.059Z,5.90
2023-08-20T14:05:27.787Z,5.93
2023-08-20T14:07:53.502Z,5.57
2023-08-20T14:10:19.140Z,6.10
2023-08-20T14:12:45.048Z,5.72
2023-08-20T14:15:11.038Z,6.25
2023-08-20T14:17:36.973Z,6.07
2023-08-20T14:20:02.828Z,6.15
2023-08-20T14:22:28.540Z,7.57
2023-08-20T14:24:54.167Z,6.68
2023-08-20T14:27:19.864Z,5.68
2023-08-20T14:29:45.604Z,5.40
2023-08-20T14:32:11.294Z,6.20
2023-08-20T14:34:36.902Z,5.78
2023-08-20T14:37:02.863Z,5.80
2023-08-20T14:39:28.535Z,5.55
2023-08-20T14:41:54.210Z,5.43
2023-08-20T14:44:19.898Z,6.43
2023-08-20T14:46:45.821Z,5.43
2023-08-20T14:49:11.624Z,5.68
2023-08-20T14:51:37.266Z,5.72
2023-08-20T14:54:03.332Z,5.50
2023-08-20T14:56:29.067Z,6.10
2023-08-20T14:58:54.733Z,5.63
2023-08-20T15:01:20.556Z,5.55
2023-08-20T15:03:46.253Z,5.00
2023-08-20T15:06:11.884Z,5.25
2023-08-20T15:08:37.596Z,5.93
2023-08-20T15:11:03.326Z,5.15
2023-08-20T15:13:30.967Z,5.75
2023-08-20T15:15:56.674Z,5.50
2023-08-20T15:18:23.376Z,4.90
2023-08-20T15:20:59.215Z,4.95
2023-08-20T15:23:26.181Z,5.70
2023-08-20T15:25:53.453Z,5.65
2023-08-20T15:28:20.327Z,5.15
2023-08-20T15:30:46.259Z,4.72
2023-08-20T15:33:11.981Z,4.70
2023-08-20T15:35:37.723Z,4.82
2023-08-20T15:38:03.505Z,4.63
2023-08-20T15:40:29.243Z,4.65
2023-08-20T15:42:54.905Z,4.97
2023-08-20T15:45:20.634Z,4.68
2023-08-20T15:47:46.414Z,4.47
2023-08-20T15:50:12.058Z,5.30
2023-08-20T15:52:37.684Z,4.70
2023-08-20T15:55:03.757Z,4.40
2023-08-20T15:57:29.404Z,3.88
2023-08-20T15:59:55.109Z,4.68
2023-08-20T16:02:21.067Z,4.75
2023-08-20T16:04:46.949Z,3.92
2023-08-20T16:07:12.724Z,4.55
2023-08-20T16:09:42.952Z,4.70
2023-08-20T16:12:10.427Z,3.97
2023-08-20T16:14:36.344Z,3.80
2023-08-20T16:17:01.999Z,3.78
2023-08-20T16:19:27.706Z,4.13
2023-08-20T16:21:53.444Z,3.75
2023-08-20T16:24:19.159Z,4.05
2023-08-20T16:26:44.959Z,4.30
2023-08-20T16:29:10.613Z,3.75
2023-08-20T16:31:36.308Z,4.00
2023-08-20T16:34:01.996Z,4.50
2023-08-20T16:36:27.657Z,4.90
2023-08-20T16:38:53.320Z,4.90
2023-08-20T16:41:19.028Z,5.60
2023-08-20T16:43:44.705Z,4.60
2023-08-20T16:46:10.469Z,5.03
2023-08-20T16:48:37.246Z,3.92
2023-08-20T16:51:03.133Z,4.28
2023-08-20T16:53:29.613Z,3.80
2023-08-20T16:55:55.880Z,4.47
2023-08-20T16:58:23.996Z,3.92
2023-08-20T17:00:49.990Z,4.70
2023-08-20T17:03:16.064Z,3.92
2023-08-20T17:05:41.964Z,4.28
2023-08-20T17:08:07.629Z,3.88
2023-08-20T17:10:33.322Z,5.32
2023-08-20T17:12:59.251Z,4.40
2023-08-20T17:15:25.617Z,4.63
2023-08-20T17:17:51.832Z,5.20
2023-08-20T17:20:17.836Z,4.63
2023-08-20T17:22:43.549Z,4.60
2023-08-20T17:25:09.176Z,4.95
2023-08-20T17:27:36.555Z,5.03
2023-08-20T17:30:03.797Z,4.88
2023-08-20T17:32:29.645Z,5.70
2023-08-20T17:34:55.805Z,5.25
2023-08-20T17:37:21.443Z,5.78
2023-08-20T17:39:47.140Z,5.45
2023-08-20T17:42:12.850Z,4.72
2023-08-20T17:44:38.466Z,5.40
2023-08-20T17:47:04.227Z,5.32
2023-08-20T17:49:29.859Z,4.90
2023-08-20T17:51:55.634Z,4.93
2023-08-20T17:54:21.339Z,5.55
2023-08-20T17:56:47.055Z,5.32
2023-08-20T17:59:12.689Z,5.35
2023-08-20T18:01:38.389Z,4.93
2023-08-20T18:04:04.229Z,5.68
2023-08-20T18:06:29.942Z,6.18
2023-08-20T18:08:55.581Z,5.55
2023-08-20T18:11:21.271Z,5.47
2023-08-20T18:13:47.001Z,5.80
2023-08-20T18:16:12.782Z,5.78
2023-08-20T18:18:38.616Z,5.72
2023-08-20T18:21:04.352Z,5.50
2023-08-20T18:23:30.082Z,5.90
2023-08-20T18:25:56.944Z,5.93
2023-08-20T18:28:22.711Z,5.53
2023-08-20T18:30:49.671Z,6.93
2023-08-20T18:33:15.381Z,5.72
2023-08-20T18:35:41.041Z,6.68
2023-08-20T18:38:06.938Z,6.28
2023-08-20T18:40:32.723Z,6.63
2023-08-20T18:42:58.355Z,6.55
2023-08-20T18:45:24.089Z,6.35
2023-08-20T18:47:49.812Z,5.78
2023-08-20T18:50:15.637Z,6.22
2023-08-20T18:52:41.333Z,5.45
2023-08-20T18:55:07.277Z,5.80
2023-08-20T18:57:32.993Z,6.03
2023-08-20T18:59:58.707Z,6.53
2023-08-20T19:02:24.411Z,6.22
2023-08-20T19:04:50.122Z,5.97
2023-08-20T19:07:15.852Z,6.53
2023-08-20T19:09:41.715Z,6.68
2023-08-20T19:12:07.743Z,8.00
2023-08-20T19:14:33.600Z,6.53
2023-08-20T19:16:59.514Z,5.78
2023-08-20T19:19:25.189Z,7.18
2023-08-20T19:21:52.036Z,6.88
2023-08-20T19:24:17.670Z,7.28
2023-08-20T19:26:43.390Z,7.10
2023-08-20T19:29:09.017Z,6.25
2023-08-20T19:31:34.894Z,6.50
2023-08-20T19:34:00.808Z,6.70
2023-08-20T19:36:26.465Z,6.20
2023-08-20T19:38:52.201Z,5.97
2023-08-20T19:41:17.920Z,6.45
2023-08-20T19:43:43.577Z,6.70
2023-08-20T19:46:09.263Z,6.80
2023-08-20T19:48:35.089Z,6.30
2023-08-20T19:51:01.103Z,8.00
2023-08-20T19:53:27.056Z,7.68
2023-08-20T19:55:56.711Z,7.53
2023-08-20T19:58:22.444Z,6.90
2023-08-20T20:00:48.322Z,6.72
2023-08-20T20:03:14.273Z,6.70
2023-08-20T20:05:39.992Z,6.50
2023-08-20T20:08:05.894Z,7.13
2023-08-20T20:10:31.514Z,7.78
2023-08-20T20:12:57.679Z,7.72
2023-08-20T20:15:23.333Z,7.47
2023-08-20T20:17:49.064Z,7.15
2023-08-20T20:20:15.250Z,7.20
2023-08-20T20:22:41.335Z,7.90
2023-08-20T20:25:07.881Z,7.05
2023-08-20T20:27:33.546Z,7.05
2023-08-20T20:29:59.207Z,8.00
2023-08-20T20:32:24.919Z,7.57
2023-08-20T20:34:50.562Z,7.38
2023-08-20T20:37:16.230Z,8.15
2023-08-20T20:39:41.921Z,8.10
2023-08-20T20:42:07.656Z,7.10
2023-08-20T20:44:33.321Z,7.00
2023-08-20T20:46:59.273Z,7.90
2023-08-20T20:49:24.917Z,7.43
2023-08-20T20:51:50.547Z,8.98
2023-08-20T20:54:16.339Z,7.70
2023-08-20T20:56:42.000Z,7.80
2023-08-20T20:59:07.896Z,8.02
2023-08-20T21:01:33.631Z,8.20
2023-08-20T21:03:59.271Z,8.13
2023-08-20T21:06:24.995Z,7.63
2023-08-20T21:08:50.697Z,7.95
2023-08-20T21:11:16.585Z,8.32
2023-08-20T21:13:42.242Z,7.90
2023-08-20T21:16:07.989Z,8.55
2023-08-20T21:18:33.695Z,7.40
2023-08-20T21:20:59.372Z,8.20
2023-08-20T21:23:25.327Z,7.85
2023-08-20T21:25:51.135Z,8.52
2023-08-20T21:28:16.815Z,9.23
2023-08-20T21:30:42.476Z,8.18
2023-08-20T21:33:08.246Z,8.80
2023-08-20T21:35:33.983Z,8.82
2023-08-20T21:37:59.709Z,7.85
2023-08-20T21:40:25.485Z,7.95
2023-08-20T21:42:51.220Z,8.00
2023-08-20T21:45:16.900Z,8.88
2023-08-20T21:47:42.845Z,8.32
2023-08-20T21:50:09.128Z,8.43
2023-08-20T21:52:34.884Z,8.55
2023-08-20T21:55:00.628Z,7.82
2023-08-20T21:57:26.488Z,8.30
2023-08-20T21:59:52.224Z,8.60
2023-08-20T22:02:18.570Z,8.65
2023-08-20T22:04:44.291Z,7.43
2023-08-20T22:07:10.310Z,8.13
2023-08-20T22:09:36.443Z,7.68
2023-08-20T22:12:02.244Z,8.02
2023-08-20T22:14:27.937Z,8.45
2023-08-20T22:17:05.697Z,7.60
2023-08-20T22:19:32.266Z,8.02
2023-08-20T22:21:58.221Z,8.60
2023-08-20T22:24:23.993Z,8.77
2023-08-20T22:26:49.641Z,9.25
2023-08-20T22:29:15.944Z,9.32
2023-08-20T22:31:42.366Z,9.00
2023-08-20T22:34:08.226Z,9.00
2023-08-20T22:36:33.924Z,9.10
2023-08-20T22:38:59.868Z,8.85
2023-08-20T22:41:25.541Z,8.45
2023-08-20T22:43:51.273Z,9.32
2023-08-20T22:46:17.042Z,8.57
2023-08-20T22:48:42.734Z,10.48
2023-08-20T22:51:08.373Z,8.38
2023-08-20T22:53:34.096Z,8.48
2023-08-20T22:55:59.792Z,8.45
2023-08-20T22:58:25.669Z,8.30
2023-08-20T23:00:51.333Z,8.65
2023-08-20T23:03:17.445Z,8.68
2023-08-20T23:05:43.133Z,8.90
2023-08-20T23:08:08.863Z,9.20
2023-08-20T23:10:34.816Z,10.05
2023-08-20T23:13:00.555Z,9.52
2023-08-20T23:15:26.302Z,10.88
2023-08-20T23:17:51.974Z,8.73
2023-08-20T23:20:17.800Z,8.95
2023-08-20T23:22:43.659Z,8.88
2023-08-20T23:25:09.307Z,9.70
2023-08-20T23:27:35.143Z,9.18
2023-08-20T23:30:01.259Z,8.82
2023-08-20T23:32:27.340Z,8.70
2023-08-20T23:34:52.982Z,9.40
2023-08-20T23:37:18.925Z,8.80
2023-08-20T23:39:44.597Z,8.43
2023-08-20T23:42:10.276Z,7.85
2023-08-20T23:44:36.864Z,8.25
2023-08-20T23:47:02.989Z,8.38
2023-08-20T23:49:28.722Z,9.25
2023-08-20T23:51:54.463Z,9.10
2023-08-20T23:54:20.175Z,8.68
2023-08-20T23:56:46.211Z,9.63
2023-08-20T23:59:12.167Z,8.88
